sensor_id;sensor_type;location;lat;lon;timestamp;temperature;humidity
43999;DHT22;51319;52.162;5.302;2023-05-19T00:00:35;9.80;83.90
43999;DHT22;51319;52.162;5.302;2023-05-19T00:03:02;9.70;84.20
43999;DHT22;51319;52.162;5.302;2023-05-19T00:05:31;9.70;84.60
43999;DHT22;51319;52.162;5.302;2023-05-19T00:07:58;9.70;85.00
43999;DHT22;51319;52.162;5.302;2023-05-19T00:10:27;9.70;85.30
43999;DHT22;51319;52.162;5.302;2023-05-19T00:12:58;9.60;85.60
43999;DHT22;51319;52.162;5.302;2023-05-19T00:15:25;9.60;85.90
43999;DHT22;51319;52.162;5.302;2023-05-19T00:17:52;9.50;86.10
43999;DHT22;51319;52.162;5.302;2023-05-19T00:20:21;9.50;86.40
43999;DHT22;51319;52.162;5.302;2023-05-19T00:22:48;9.50;86.60
43999;DHT22;51319;52.162;5.302;2023-05-19T00:25:16;9.40;86.90
43999;DHT22;51319;52.162;5.302;2023-05-19T00:27:43;9.40;87.20
43999;DHT22;51319;52.162;5.302;2023-05-19T00:30:10;9.40;87.50
43999;DHT22;51319;52.162;5.302;2023-05-19T00:32:37;9.30;87.70
43999;DHT22;51319;52.162;5.302;2023-05-19T00:35:04;9.30;88.10
43999;DHT22;51319;52.162;5.302;2023-05-19T00:37:31;9.30;88.30
43999;DHT22;51319;52.162;5.302;2023-05-19T00:39:58;9.30;88.60
43999;DHT22;51319;52.162;5.302;2023-05-19T00:42:25;9.20;88.90
43999;DHT22;51319;52.162;5.302;2023-05-19T00:44:52;9.20;89.20
43999;DHT22;51319;52.162;5.302;2023-05-19T00:47:19;9.20;89.50
43999;DHT22;51319;52.162;5.302;2023-05-19T00:49:46;9.10;89.80
43999;DHT22;51319;52.162;5.302;2023-05-19T00:52:13;9.10;90.00
43999;DHT22;51319;52.162;5.302;2023-05-19T00:54:40;9.10;90.10
43999;DHT22;51319;52.162;5.302;2023-05-19T00:57:08;9.00;90.20
43999;DHT22;51319;52.162;5.302;2023-05-19T00:59:35;9.00;90.30
43999;DHT22;51319;52.162;5.302;2023-05-19T01:02:02;9.00;90.40
43999;DHT22;51319;52.162;5.302;2023-05-19T01:04:30;9.00;90.50
43999;DHT22;51319;52.162;5.302;2023-05-19T01:07:00;8.90;90.60
43999;DHT22;51319;52.162;5.302;2023-05-19T01:09:27;8.90;90.70
43999;DHT22;51319;52.162;5.302;2023-05-19T01:11:54;8.90;90.80
43999;DHT22;51319;52.162;5.302;2023-05-19T01:14:21;8.90;91.00
43999;DHT22;51319;52.162;5.302;2023-05-19T01:30:29;8.70;92.00
43999;DHT22;51319;52.162;5.302;2023-05-19T01:33:02;8.70;92.20
43999;DHT22;51319;52.162;5.302;2023-05-19T01:35:30;8.70;92.40
43999;DHT22;51319;52.162;5.302;2023-05-19T01:38:00;8.70;92.60
43999;DHT22;51319;52.162;5.302;2023-05-19T01:40:28;8.60;92.70
43999;DHT22;51319;52.162;5.302;2023-05-19T01:42:58;8.60;92.90
43999;DHT22;51319;52.162;5.302;2023-05-19T01:45:27;8.60;93.10
43999;DHT22;51319;52.162;5.302;2023-05-19T01:47:57;8.50;93.30
43999;DHT22;51319;52.162;5.302;2023-05-19T01:50:25;8.50;93.50
43999;DHT22;51319;52.162;5.302;2023-05-19T01:52:52;8.50;93.60
43999;DHT22;51319;52.162;5.302;2023-05-19T01:55:19;8.50;93.90
43999;DHT22;51319;52.162;5.302;2023-05-19T01:57:59;8.40;94.00
43999;DHT22;51319;52.162;5.302;2023-05-19T02:08:40;8.30;94.70
43999;DHT22;51319;52.162;5.302;2023-05-19T02:11:36;8.30;94.80
43999;DHT22;51319;52.162;5.302;2023-05-19T02:14:11;8.30;95.00
43999;DHT22;51319;52.162;5.302;2023-05-19T02:16:44;8.30;95.10
43999;DHT22;51319;52.162;5.302;2023-05-19T02:19:26;8.30;95.30
43999;DHT22;51319;52.162;5.302;2023-05-19T02:21:53;8.20;95.50
43999;DHT22;51319;52.162;5.302;2023-05-19T02:24:21;8.20;95.60
43999;DHT22;51319;52.162;5.302;2023-05-19T02:26:49;8.20;95.70
43999;DHT22;51319;52.162;5.302;2023-05-19T02:29:20;8.20;95.90
43999;DHT22;51319;52.162;5.302;2023-05-19T02:31:47;8.20;96.10
43999;DHT22;51319;52.162;5.302;2023-05-19T02:34:14;8.20;96.30
43999;DHT22;51319;52.162;5.302;2023-05-19T02:36:42;8.20;96.40
43999;DHT22;51319;52.162;5.302;2023-05-19T02:39:09;8.10;96.50
43999;DHT22;51319;52.162;5.302;2023-05-19T02:41:37;8.10;96.70
43999;DHT22;51319;52.162;5.302;2023-05-19T02:44:04;8.10;96.90
43999;DHT22;51319;52.162;5.302;2023-05-19T02:46:31;8.10;97.00
43999;DHT22;51319;52.162;5.302;2023-05-19T02:48:59;8.10;97.20
43999;DHT22;51319;52.162;5.302;2023-05-19T02:51:26;8.10;97.40
43999;DHT22;51319;52.162;5.302;2023-05-19T02:53:53;8.00;97.50
43999;DHT22;51319;52.162;5.302;2023-05-19T02:56:19;8.00;97.70
43999;DHT22;51319;52.162;5.302;2023-05-19T02:58:47;8.00;97.80
43999;DHT22;51319;52.162;5.302;2023-05-19T03:01:14;8.00;98.00
43999;DHT22;51319;52.162;5.302;2023-05-19T03:03:41;8.00;98.20
43999;DHT22;51319;52.162;5.302;2023-05-19T03:06:08;8.00;98.30
43999;DHT22;51319;52.162;5.302;2023-05-19T03:08:35;7.90;98.50
43999;DHT22;51319;52.162;5.302;2023-05-19T03:11:02;7.90;98.60
43999;DHT22;51319;52.162;5.302;2023-05-19T03:13:29;7.90;98.70
43999;DHT22;51319;52.162;5.302;2023-05-19T03:15:56;7.90;98.90
43999;DHT22;51319;52.162;5.302;2023-05-19T03:18:25;7.90;99.00
43999;DHT22;51319;52.162;5.302;2023-05-19T03:20:52;7.90;99.20
43999;DHT22;51319;52.162;5.302;2023-05-19T03:23:20;7.80;99.30
43999;DHT22;51319;52.162;5.302;2023-05-19T03:25:47;7.80;99.40
43999;DHT22;51319;52.162;5.302;2023-05-19T03:28:14;7.80;99.50
43999;DHT22;51319;52.162;5.302;2023-05-19T03:30:42;7.80;99.60
43999;DHT22;51319;52.162;5.302;2023-05-19T03:33:09;7.80;99.70
43999;DHT22;51319;52.162;5.302;2023-05-19T03:35:37;7.70;99.80
43999;DHT22;51319;52.162;5.302;2023-05-19T03:38:04;7.70;99.90
43999;DHT22;51319;52.162;5.302;2023-05-19T03:40:31;7.70;99.90
43999;DHT22;51319;52.162;5.302;2023-05-19T03:42:58;7.70;99.90
43999;DHT22;51319;52.162;5.302;2023-05-19T03:45:27;7.70;99.90
43999;DHT22;51319;52.162;5.302;2023-05-19T03:47:54;7.70;99.90
43999;DHT22;51319;52.162;5.302;2023-05-19T03:50:21;7.60;99.90
43999;DHT22;51319;52.162;5.302;2023-05-19T03:52:48;7.70;99.90
43999;DHT22;51319;52.162;5.302;2023-05-19T03:55:15;7.70;99.90
43999;DHT22;51319;52.162;5.302;2023-05-19T03:57:42;7.70;99.90
43999;DHT22;51319;52.162;5.302;2023-05-19T04:00:10;7.70;99.90
43999;DHT22;51319;52.162;5.302;2023-05-19T04:02:38;7.60;99.90
43999;DHT22;51319;52.162;5.302;2023-05-19T04:05:05;7.70;99.90
43999;DHT22;51319;52.162;5.302;2023-05-19T04:07:32;7.60;99.90
43999;DHT22;51319;52.162;5.302;2023-05-19T04:09:59;7.60;99.90
43999;DHT22;51319;52.162;5.302;2023-05-19T04:12:26;7.70;99.90
43999;DHT22;51319;52.162;5.302;2023-05-19T04:14:53;7.70;99.90
43999;DHT22;51319;52.162;5.302;2023-05-19T04:17:20;7.70;99.90
43999;DHT22;51319;52.162;5.302;2023-05-19T04:19:49;7.70;99.90
43999;DHT22;51319;52.162;5.302;2023-05-19T04:22:16;7.70;99.90
43999;DHT22;51319;52.162;5.302;2023-05-19T04:24:43;7.70;99.90
43999;DHT22;51319;52.162;5.302;2023-05-19T04:27:11;7.70;99.90
43999;DHT22;51319;52.162;5.302;2023-05-19T04:29:38;7.80;99.90
43999;DHT22;51319;52.162;5.302;2023-05-19T04:32:06;7.80;99.90
43999;DHT22;51319;52.162;5.302;2023-05-19T04:34:34;7.80;99.90
43999;DHT22;51319;52.162;5.302;2023-05-19T04:37:01;7.90;99.90
43999;DHT22;51319;52.162;5.302;2023-05-19T04:39:28;7.90;99.90
43999;DHT22;51319;52.162;5.302;2023-05-19T04:41:55;7.90;99.90
43999;DHT22;51319;52.162;5.302;2023-05-19T04:44:22;8.00;99.90
43999;DHT22;51319;52.162;5.302;2023-05-19T04:46:49;8.00;99.90
43999;DHT22;51319;52.162;5.302;2023-05-19T04:49:20;8.00;99.90
43999;DHT22;51319;52.162;5.302;2023-05-19T04:51:47;8.10;99.90
43999;DHT22;51319;52.162;5.302;2023-05-19T04:54:17;8.10;99.90
43999;DHT22;51319;52.162;5.302;2023-05-19T04:56:44;8.10;99.90
43999;DHT22;51319;52.162;5.302;2023-05-19T04:59:11;8.20;99.90
43999;DHT22;51319;52.162;5.302;2023-05-19T05:01:38;8.20;99.90
43999;DHT22;51319;52.162;5.302;2023-05-19T05:04:06;8.20;99.90
43999;DHT22;51319;52.162;5.302;2023-05-19T05:06:33;8.30;99.90
43999;DHT22;51319;52.162;5.302;2023-05-19T05:09:00;8.40;99.90
43999;DHT22;51319;52.162;5.302;2023-05-19T05:11:29;8.50;99.90
43999;DHT22;51319;52.162;5.302;2023-05-19T05:13:56;8.50;99.90
43999;DHT22;51319;52.162;5.302;2023-05-19T05:16:26;8.50;99.90
43999;DHT22;51319;52.162;5.302;2023-05-19T05:18:53;8.50;99.90
43999;DHT22;51319;52.162;5.302;2023-05-19T05:21:20;8.60;99.90
43999;DHT22;51319;52.162;5.302;2023-05-19T05:23:50;8.70;99.90
43999;DHT22;51319;52.162;5.302;2023-05-19T05:26:18;8.80;99.90
43999;DHT22;51319;52.162;5.302;2023-05-19T05:28:46;8.80;99.90
43999;DHT22;51319;52.162;5.302;2023-05-19T05:31:14;8.90;99.90
43999;DHT22;51319;52.162;5.302;2023-05-19T05:33:41;9.20;99.90
43999;DHT22;51319;52.162;5.302;2023-05-19T05:36:09;9.40;99.80
43999;DHT22;51319;52.162;5.302;2023-05-19T05:38:36;9.70;99.30
43999;DHT22;51319;52.162;5.302;2023-05-19T05:41:03;9.90;99.00
43999;DHT22;51319;52.162;5.302;2023-05-19T05:43:30;10.20;98.40
43999;DHT22;51319;52.162;5.302;2023-05-19T05:45:56;10.60;97.60
43999;DHT22;51319;52.162;5.302;2023-05-19T05:48:24;11.00;96.80
43999;DHT22;51319;52.162;5.302;2023-05-19T05:50:51;11.30;96.00
43999;DHT22;51319;52.162;5.302;2023-05-19T05:53:19;11.60;95.10
43999;DHT22;51319;52.162;5.302;2023-05-19T05:55:47;12.00;94.10
43999;DHT22;51319;52.162;5.302;2023-05-19T05:58:14;12.30;92.90
43999;DHT22;51319;52.162;5.302;2023-05-19T06:00:42;12.70;91.80
43999;DHT22;51319;52.162;5.302;2023-05-19T06:03:10;13.00;90.60
43999;DHT22;51319;52.162;5.302;2023-05-19T06:05:37;13.10;89.30
43999;DHT22;51319;52.162;5.302;2023-05-19T06:08:04;13.30;87.70
43999;DHT22;51319;52.162;5.302;2023-05-19T06:10:32;13.60;85.70
43999;DHT22;51319;52.162;5.302;2023-05-19T06:13:01;13.60;84.10
43999;DHT22;51319;52.162;5.302;2023-05-19T06:15:28;13.60;83.40
43999;DHT22;51319;52.162;5.302;2023-05-19T06:18:02;13.80;83.00
43999;DHT22;51319;52.162;5.302;2023-05-19T06:20:29;14.20;82.00
43999;DHT22;51319;52.162;5.302;2023-05-19T06:22:57;14.40;80.60
43999;DHT22;51319;52.162;5.302;2023-05-19T06:25:24;14.80;79.80
43999;DHT22;51319;52.162;5.302;2023-05-19T06:27:51;15.10;78.40
43999;DHT22;51319;52.162;5.302;2023-05-19T06:30:18;15.60;76.80
43999;DHT22;51319;52.162;5.302;2023-05-19T06:32:45;16.00;74.80
43999;DHT22;51319;52.162;5.302;2023-05-19T06:35:12;16.20;73.20
43999;DHT22;51319;52.162;5.302;2023-05-19T06:37:39;16.50;71.90
43999;DHT22;51319;52.162;5.302;2023-05-19T06:40:06;16.50;71.10
43999;DHT22;51319;52.162;5.302;2023-05-19T06:42:33;16.50;70.40
43999;DHT22;51319;52.162;5.302;2023-05-19T06:45:00;16.70;69.70
43999;DHT22;51319;52.162;5.302;2023-05-19T06:47:27;16.90;68.70
43999;DHT22;51319;52.162;5.302;2023-05-19T06:49:54;17.10;68.00
43999;DHT22;51319;52.162;5.302;2023-05-19T06:52:23;17.50;67.20
43999;DHT22;51319;52.162;5.302;2023-05-19T06:54:50;18.10;65.90
43999;DHT22;51319;52.162;5.302;2023-05-19T06:57:17;18.60;64.60
43999;DHT22;51319;52.162;5.302;2023-05-19T06:59:44;19.00;63.20
43999;DHT22;51319;52.162;5.302;2023-05-19T07:02:12;19.50;61.50
43999;DHT22;51319;52.162;5.302;2023-05-19T07:04:39;20.00;60.40
43999;DHT22;51319;52.162;5.302;2023-05-19T07:07:06;20.40;59.40
43999;DHT22;51319;52.162;5.302;2023-05-19T07:09:33;20.70;57.80
43999;DHT22;51319;52.162;5.302;2023-05-19T07:12:00;20.90;57.00
43999;DHT22;51319;52.162;5.302;2023-05-19T07:14:27;21.00;56.20
43999;DHT22;51319;52.162;5.302;2023-05-19T07:16:54;21.10;55.90
43999;DHT22;51319;52.162;5.302;2023-05-19T07:19:21;21.00;55.50
43999;DHT22;51319;52.162;5.302;2023-05-19T07:21:49;20.60;55.50
43999;DHT22;51319;52.162;5.302;2023-05-19T07:24:16;20.30;56.20
43999;DHT22;51319;52.162;5.302;2023-05-19T07:26:43;20.10;56.40
43999;DHT22;51319;52.162;5.302;2023-05-19T07:29:10;19.70;56.70
43999;DHT22;51319;52.162;5.302;2023-05-19T07:31:37;19.70;56.90
43999;DHT22;51319;52.162;5.302;2023-05-19T07:34:04;19.80;56.30
43999;DHT22;51319;52.162;5.302;2023-05-19T07:36:31;20.20;56.20
43999;DHT22;51319;52.162;5.302;2023-05-19T07:38:59;20.70;55.60
43999;DHT22;51319;52.162;5.302;2023-05-19T07:41:26;21.10;54.10
43999;DHT22;51319;52.162;5.302;2023-05-19T07:43:53;21.50;53.40
43999;DHT22;51319;52.162;5.302;2023-05-19T07:46:20;22.30;52.90
43999;DHT22;51319;52.162;5.302;2023-05-19T07:48:48;23.10;50.80
43999;DHT22;51319;52.162;5.302;2023-05-19T07:51:23;23.80;48.70
43999;DHT22;51319;52.162;5.302;2023-05-19T07:53:50;24.20;47.10
43999;DHT22;51319;52.162;5.302;2023-05-19T07:56:18;24.50;47.60
43999;DHT22;51319;52.162;5.302;2023-05-19T07:58:45;24.70;46.90
43999;DHT22;51319;52.162;5.302;2023-05-19T08:01:12;25.10;45.80
43999;DHT22;51319;52.162;5.302;2023-05-19T08:03:39;25.30;45.80
43999;DHT22;51319;52.162;5.302;2023-05-19T08:06:06;25.70;44.50
43999;DHT22;51319;52.162;5.302;2023-05-19T08:08:33;26.10;44.00
43999;DHT22;51319;52.162;5.302;2023-05-19T08:11:01;26.70;44.40
43999;DHT22;51319;52.162;5.302;2023-05-19T08:13:30;27.20;42.20
43999;DHT22;51319;52.162;5.302;2023-05-19T08:15:59;27.50;42.40
43999;DHT22;51319;52.162;5.302;2023-05-19T08:18:27;27.90;40.80
43999;DHT22;51319;52.162;5.302;2023-05-19T08:20:54;28.50;40.70
43999;DHT22;51319;52.162;5.302;2023-05-19T08:23:22;28.80;39.60
43999;DHT22;51319;52.162;5.302;2023-05-19T08:25:49;28.80;38.50
43999;DHT22;51319;52.162;5.302;2023-05-19T08:28:16;28.90;37.10
43999;DHT22;51319;52.162;5.302;2023-05-19T08:30:43;29.00;37.00
43999;DHT22;51319;52.162;5.302;2023-05-19T08:33:13;29.30;37.00
43999;DHT22;51319;52.162;5.302;2023-05-19T08:35:40;29.50;36.40
43999;DHT22;51319;52.162;5.302;2023-05-19T08:38:08;29.60;35.10
43999;DHT22;51319;52.162;5.302;2023-05-19T08:40:36;29.60;35.10
43999;DHT22;51319;52.162;5.302;2023-05-19T08:43:03;29.70;33.90
43999;DHT22;51319;52.162;5.302;2023-05-19T08:48:01;30.00;33.40
43999;DHT22;51319;52.162;5.302;2023-05-19T08:50:29;30.00;34.00
43999;DHT22;51319;52.162;5.302;2023-05-19T08:53:13;29.70;33.60
43999;DHT22;51319;52.162;5.302;2023-05-19T08:58:40;28.70;35.40
43999;DHT22;51319;52.162;5.302;2023-05-19T09:01:13;28.30;34.10
43999;DHT22;51319;52.162;5.302;2023-05-19T09:03:43;28.00;34.30
43999;DHT22;51319;52.162;5.302;2023-05-19T09:06:11;27.70;35.70
43999;DHT22;51319;52.162;5.302;2023-05-19T09:08:39;27.70;36.10
43999;DHT22;51319;52.162;5.302;2023-05-19T09:11:08;28.00;35.20
43999;DHT22;51319;52.162;5.302;2023-05-19T09:13:35;28.10;32.90
43999;DHT22;51319;52.162;5.302;2023-05-19T09:16:03;28.40;33.30
43999;DHT22;51319;52.162;5.302;2023-05-19T09:18:30;29.20;33.40
43999;DHT22;51319;52.162;5.302;2023-05-19T09:20:59;30.10;32.90
43999;DHT22;51319;52.162;5.302;2023-05-19T09:23:30;30.60;32.50
43999;DHT22;51319;52.162;5.302;2023-05-19T09:26:03;30.90;31.30
43999;DHT22;51319;52.162;5.302;2023-05-19T09:28:35;31.30;31.50
43999;DHT22;51319;52.162;5.302;2023-05-19T09:31:07;31.80;31.10
43999;DHT22;51319;52.162;5.302;2023-05-19T09:33:38;32.10;30.10
43999;DHT22;51319;52.162;5.302;2023-05-19T09:36:08;32.10;28.90
43999;DHT22;51319;52.162;5.302;2023-05-19T09:38:37;31.90;28.70
43999;DHT22;51319;52.162;5.302;2023-05-19T09:41:06;31.80;28.90
43999;DHT22;51319;52.162;5.302;2023-05-19T09:43:33;31.90;28.50
43999;DHT22;51319;52.162;5.302;2023-05-19T09:46:09;32.30;28.70
43999;DHT22;51319;52.162;5.302;2023-05-19T09:48:43;32.60;29.20
43999;DHT22;51319;52.162;5.302;2023-05-19T09:51:11;32.70;29.30
43999;DHT22;51319;52.162;5.302;2023-05-19T09:53:38;32.30;28.30
43999;DHT22;51319;52.162;5.302;2023-05-19T09:56:07;32.40;29.60
43999;DHT22;51319;52.162;5.302;2023-05-19T09:58:36;33.10;29.00
43999;DHT22;51319;52.162;5.302;2023-05-19T10:01:03;33.70;28.90
43999;DHT22;51319;52.162;5.302;2023-05-19T10:03:32;34.10;29.20
43999;DHT22;51319;52.162;5.302;2023-05-19T10:06:03;34.30;28.40
43999;DHT22;51319;52.162;5.302;2023-05-19T10:08:33;34.60;28.00
43999;DHT22;51319;52.162;5.302;2023-05-19T10:11:00;34.90;27.70
43999;DHT22;51319;52.162;5.302;2023-05-19T10:13:28;35.30;27.80
43999;DHT22;51319;52.162;5.302;2023-05-19T10:15:57;35.40;27.40
43999;DHT22;51319;52.162;5.302;2023-05-19T10:18:28;35.30;26.80
43999;DHT22;51319;52.162;5.302;2023-05-19T10:20:56;35.10;26.90
43999;DHT22;51319;52.162;5.302;2023-05-19T10:23:24;35.10;27.30
43999;DHT22;51319;52.162;5.302;2023-05-19T10:25:55;35.40;27.10
43999;DHT22;51319;52.162;5.302;2023-05-19T10:28:30;35.80;27.60
43999;DHT22;51319;52.162;5.302;2023-05-19T10:31:01;36.30;27.00
43999;DHT22;51319;52.162;5.302;2023-05-19T10:33:34;36.70;27.10
43999;DHT22;51319;52.162;5.302;2023-05-19T10:36:43;36.80;27.50
43999;DHT22;51319;52.162;5.302;2023-05-19T10:39:22;36.90;26.50
43999;DHT22;51319;52.162;5.302;2023-05-19T10:45:01;36.70;26.70
43999;DHT22;51319;52.162;5.302;2023-05-19T10:47:33;37.00;27.00
43999;DHT22;51319;52.162;5.302;2023-05-19T10:50:07;37.30;26.10
43999;DHT22;51319;52.162;5.302;2023-05-19T10:52:38;36.90;25.90
43999;DHT22;51319;52.162;5.302;2023-05-19T10:55:11;36.60;26.20
43999;DHT22;51319;52.162;5.302;2023-05-19T10:58:11;36.60;26.30
43999;DHT22;51319;52.162;5.302;2023-05-19T11:00:38;36.60;26.90
43999;DHT22;51319;52.162;5.302;2023-05-19T11:03:14;36.60;27.00
43999;DHT22;51319;52.162;5.302;2023-05-19T11:05:42;36.50;27.10
43999;DHT22;51319;52.162;5.302;2023-05-19T11:10:52;35.90;26.50
43999;DHT22;51319;52.162;5.302;2023-05-19T11:13:21;35.60;26.60
43999;DHT22;51319;52.162;5.302;2023-05-19T11:15:48;35.40;27.10
43999;DHT22;51319;52.162;5.302;2023-05-19T11:18:30;35.40;27.40
43999;DHT22;51319;52.162;5.302;2023-05-19T11:20:59;35.80;27.10
43999;DHT22;51319;52.162;5.302;2023-05-19T11:23:32;36.10;27.10
43999;DHT22;51319;52.162;5.302;2023-05-19T11:26:01;36.30;26.90
43999;DHT22;51319;52.162;5.302;2023-05-19T11:28:30;36.30;27.00
43999;DHT22;51319;52.162;5.302;2023-05-19T11:31:00;36.40;27.10
43999;DHT22;51319;52.162;5.302;2023-05-19T11:33:28;36.80;27.10
43999;DHT22;51319;52.162;5.302;2023-05-19T11:35:58;37.00;26.30
43999;DHT22;51319;52.162;5.302;2023-05-19T11:38:27;36.80;26.30
43999;DHT22;51319;52.162;5.302;2023-05-19T11:40:54;36.90;26.90
43999;DHT22;51319;52.162;5.302;2023-05-19T11:43:27;37.10;26.70
43999;DHT22;51319;52.162;5.302;2023-05-19T11:45:54;37.40;27.00
43999;DHT22;51319;52.162;5.302;2023-05-19T11:48:22;37.80;26.00
43999;DHT22;51319;52.162;5.302;2023-05-19T11:50:50;37.70;26.40
43999;DHT22;51319;52.162;5.302;2023-05-19T11:53:18;37.40;26.10
43999;DHT22;51319;52.162;5.302;2023-05-19T12:04:09;36.40;27.60
43999;DHT22;51319;52.162;5.302;2023-05-19T12:06:36;36.40;26.00
43999;DHT22;51319;52.162;5.302;2023-05-19T12:17:19;36.20;26.60
43999;DHT22;51319;52.162;5.302;2023-05-19T12:19:47;36.30;26.60
43999;DHT22;51319;52.162;5.302;2023-05-19T12:22:16;36.50;26.40
43999;DHT22;51319;52.162;5.302;2023-05-19T12:24:44;36.30;26.30
43999;DHT22;51319;52.162;5.302;2023-05-19T12:27:24;36.10;26.80
43999;DHT22;51319;52.162;5.302;2023-05-19T12:29:55;36.00;27.00
43999;DHT22;51319;52.162;5.302;2023-05-19T12:32:26;35.60;27.00
43999;DHT22;51319;52.162;5.302;2023-05-19T12:37:30;34.70;27.10
43999;DHT22;51319;52.162;5.302;2023-05-19T12:39:59;33.90;27.60
43999;DHT22;51319;52.162;5.302;2023-05-19T12:42:28;33.20;28.30
43999;DHT22;51319;52.162;5.302;2023-05-19T12:44:59;32.60;28.70
43999;DHT22;51319;52.162;5.302;2023-05-19T12:47:35;32.10;28.30
43999;DHT22;51319;52.162;5.302;2023-05-19T12:50:07;31.60;28.70
43999;DHT22;51319;52.162;5.302;2023-05-19T12:52:43;31.20;29.50
43999;DHT22;51319;52.162;5.302;2023-05-19T12:55:12;30.80;29.40
43999;DHT22;51319;52.162;5.302;2023-05-19T12:57:42;30.70;29.50
43999;DHT22;51319;52.162;5.302;2023-05-19T13:00:18;30.80;30.40
43999;DHT22;51319;52.162;5.302;2023-05-19T13:02:59;31.00;29.40
43999;DHT22;51319;52.162;5.302;2023-05-19T13:05:28;31.00;30.00
43999;DHT22;51319;52.162;5.302;2023-05-19T13:08:16;31.00;30.40
43999;DHT22;51319;52.162;5.302;2023-05-19T13:10:44;31.10;29.70
43999;DHT22;51319;52.162;5.302;2023-05-19T13:13:12;31.20;29.30
43999;DHT22;51319;52.162;5.302;2023-05-19T13:15:40;31.10;29.10
43999;DHT22;51319;52.162;5.302;2023-05-19T13:18:09;31.10;29.50
43999;DHT22;51319;52.162;5.302;2023-05-19T13:20:38;31.20;30.30
43999;DHT22;51319;52.162;5.302;2023-05-19T13:23:06;31.20;30.50
43999;DHT22;51319;52.162;5.302;2023-05-19T13:45:01;31.40;28.70
43999;DHT22;51319;52.162;5.302;2023-05-19T13:47:29;31.00;30.20
43999;DHT22;51319;52.162;5.302;2023-05-19T13:49:56;30.60;29.40
43999;DHT22;51319;52.162;5.302;2023-05-19T13:52:23;30.20;29.80
43999;DHT22;51319;52.162;5.302;2023-05-19T13:54:54;29.90;30.20
43999;DHT22;51319;52.162;5.302;2023-05-19T13:57:23;29.60;30.50
43999;DHT22;51319;52.162;5.302;2023-05-19T13:59:53;29.20;30.90
43999;DHT22;51319;52.162;5.302;2023-05-19T14:02:31;28.90;31.20
43999;DHT22;51319;52.162;5.302;2023-05-19T14:04:58;28.70;31.40
43999;DHT22;51319;52.162;5.302;2023-05-19T14:07:26;28.50;31.50
43999;DHT22;51319;52.162;5.302;2023-05-19T14:09:53;28.10;31.10
43999;DHT22;51319;52.162;5.302;2023-05-19T14:12:20;27.80;31.00
43999;DHT22;51319;52.162;5.302;2023-05-19T14:20:30;26.70;33.00
43999;DHT22;51319;52.162;5.302;2023-05-19T14:22:58;26.50;33.50
43999;DHT22;51319;52.162;5.302;2023-05-19T14:39:01;25.60;35.20
43999;DHT22;51319;52.162;5.302;2023-05-19T14:41:28;25.50;34.00
43999;DHT22;51319;52.162;5.302;2023-05-19T14:43:55;25.30;34.30
43999;DHT22;51319;52.162;5.302;2023-05-19T14:46:22;25.20;35.50
43999;DHT22;51319;52.162;5.302;2023-05-19T14:48:51;25.10;35.60
43999;DHT22;51319;52.162;5.302;2023-05-19T14:51:17;25.10;34.70
43999;DHT22;51319;52.162;5.302;2023-05-19T14:53:47;25.00;34.60
43999;DHT22;51319;52.162;5.302;2023-05-19T14:56:15;25.00;34.70
43999;DHT22;51319;52.162;5.302;2023-05-19T14:58:49;24.90;35.00
43999;DHT22;51319;52.162;5.302;2023-05-19T15:01:16;24.90;34.50
43999;DHT22;51319;52.162;5.302;2023-05-19T15:03:43;24.80;35.20
43999;DHT22;51319;52.162;5.302;2023-05-19T15:06:09;24.70;34.80
43999;DHT22;51319;52.162;5.302;2023-05-19T15:08:36;24.60;35.60
43999;DHT22;51319;52.162;5.302;2023-05-19T15:11:13;24.50;35.60
43999;DHT22;51319;52.162;5.302;2023-05-19T15:13:41;24.50;35.50
43999;DHT22;51319;52.162;5.302;2023-05-19T15:16:07;24.50;36.30
43999;DHT22;51319;52.162;5.302;2023-05-19T15:18:40;24.50;36.10
43999;DHT22;51319;52.162;5.302;2023-05-19T15:21:07;24.40;35.90
43999;DHT22;51319;52.162;5.302;2023-05-19T15:23:35;24.20;35.20
43999;DHT22;51319;52.162;5.302;2023-05-19T15:26:02;24.00;35.60
43999;DHT22;51319;52.162;5.302;2023-05-19T15:28:29;23.90;35.50
43999;DHT22;51319;52.162;5.302;2023-05-19T15:30:56;23.70;35.90
43999;DHT22;51319;52.162;5.302;2023-05-19T15:33:23;23.60;36.30
43999;DHT22;51319;52.162;5.302;2023-05-19T15:35:50;23.50;36.30
43999;DHT22;51319;52.162;5.302;2023-05-19T15:38:18;23.40;37.10
43999;DHT22;51319;52.162;5.302;2023-05-19T15:40:45;23.30;36.90
43999;DHT22;51319;52.162;5.302;2023-05-19T15:43:13;23.30;37.30
43999;DHT22;51319;52.162;5.302;2023-05-19T15:45:40;23.20;37.20
43999;DHT22;51319;52.162;5.302;2023-05-19T15:48:07;23.10;37.20
43999;DHT22;51319;52.162;5.302;2023-05-19T15:50:34;23.00;37.90
43999;DHT22;51319;52.162;5.302;2023-05-19T15:53:01;23.00;37.80
43999;DHT22;51319;52.162;5.302;2023-05-19T15:55:28;23.00;37.90
43999;DHT22;51319;52.162;5.302;2023-05-19T15:57:56;23.00;38.40
43999;DHT22;51319;52.162;5.302;2023-05-19T16:00:22;22.90;37.90
43999;DHT22;51319;52.162;5.302;2023-05-19T16:02:49;22.90;37.90
43999;DHT22;51319;52.162;5.302;2023-05-19T16:05:17;22.80;38.00
43999;DHT22;51319;52.162;5.302;2023-05-19T16:07:44;22.70;38.10
43999;DHT22;51319;52.162;5.302;2023-05-19T16:10:11;22.80;38.40
43999;DHT22;51319;52.162;5.302;2023-05-19T16:12:38;22.70;38.40
43999;DHT22;51319;52.162;5.302;2023-05-19T16:15:05;22.70;38.10
43999;DHT22;51319;52.162;5.302;2023-05-19T16:17:32;22.90;38.50
43999;DHT22;51319;52.162;5.302;2023-05-19T16:20:03;22.90;38.50
43999;DHT22;51319;52.162;5.302;2023-05-19T16:22:33;23.00;38.00
43999;DHT22;51319;52.162;5.302;2023-05-19T16:25:01;22.90;37.90
43999;DHT22;51319;52.162;5.302;2023-05-19T16:27:28;22.80;38.40
43999;DHT22;51319;52.162;5.302;2023-05-19T16:29:56;22.80;38.30
43999;DHT22;51319;52.162;5.302;2023-05-19T16:32:24;22.70;38.50
43999;DHT22;51319;52.162;5.302;2023-05-19T16:34:51;22.70;38.70
43999;DHT22;51319;52.162;5.302;2023-05-19T16:42:35;22.50;39.10
43999;DHT22;51319;52.162;5.302;2023-05-19T16:45:02;22.50;39.90
43999;DHT22;51319;52.162;5.302;2023-05-19T16:47:29;22.50;39.30
43999;DHT22;51319;52.162;5.302;2023-05-19T16:49:59;22.50;39.40
43999;DHT22;51319;52.162;5.302;2023-05-19T16:52:26;22.70;39.50
43999;DHT22;51319;52.162;5.302;2023-05-19T16:54:56;22.80;39.30
43999;DHT22;51319;52.162;5.302;2023-05-19T16:57:23;22.90;39.10
43999;DHT22;51319;52.162;5.302;2023-05-19T16:59:51;22.70;39.30
43999;DHT22;51319;52.162;5.302;2023-05-19T17:02:17;22.60;39.00
43999;DHT22;51319;52.162;5.302;2023-05-19T17:05:03;22.40;39.40
43999;DHT22;51319;52.162;5.302;2023-05-19T17:07:52;22.10;39.80
43999;DHT22;51319;52.162;5.302;2023-05-19T17:10:21;22.00;40.10
43999;DHT22;51319;52.162;5.302;2023-05-19T17:12:51;21.90;41.00
43999;DHT22;51319;52.162;5.302;2023-05-19T17:15:18;22.00;41.00
43999;DHT22;51319;52.162;5.302;2023-05-19T17:18:03;21.90;40.60
43999;DHT22;51319;52.162;5.302;2023-05-19T17:20:33;21.90;40.00